Current Conditions
Mostly Scattered
Clouds



Pressure
29.98 (inHG) - 1015.22 (mb)
Visibility

10.0 (mimiles) - 16.1 (km)
   Temperature
90  °F
32°C
73  °F
Dewpoint
59  %
 Humidity
   Wind Speed
12  mph
10  kts
19  km/h
5.4  m/s
   Wind Direction
 180°
Due South
   Airport Data
KDWH
Location David Wayne Hooks Memorial 4.4 mi (7.08 km)
Metar :KDWH 162153Z 18010G17KT 10SM SCT055 BKN070 32/23 A2998 RMK AO2 LTG DSNT N AND NE SLP150 T03170228
Tue 16th July 16:53 pm
   Raw Metar Info
Raw METAR is the most common format in the world for the transmission of observational weather data. It is highly standardized through the International Civil Aviation Organization (ICAO), which allows it to be understood throughout most of the world.
   API Info
Data Provided by
https://www.checkwx.com/weather/KDWH
   © Info
CSS/SVG/PHP scripts were developed by weather34.com for use in the weather34 template © 2015-2019

Guide Info provided by Metar-Wikipedia